Time;durP1;ratioP1;P1;durP2;ratioP2;P2;SDS_P1;SDS_P2;PMS_P1;PMS_P2;Temp;Humidity;BMP_temperature;BMP_pressure;BME280_temperature;BME280_humidity;BME280_pressure;Samples;Min_cycle;Max_cycle;Signal;HPM_P1;HPM_P2
2023/10/04 00:00:33;;;;;;;;;;;12.40;99.90;;;;;;6771028;88;20096;-80
2023/10/04 00:10:34;;;;;;;;;;;12.10;99.90;;;;;;6754869;88;20066;-80
2023/10/04 00:20:35;;;;;;;;;;;12.00;99.90;;;;;;6758432;88;20068;-79
2023/10/04 00:30:36;;;;;;;;;;;11.90;99.90;;;;;;6759741;88;20026;-80
2023/10/04 00:40:39;;;;;;;;;;;12.10;99.90;;;;;;6763858;88;20043;-81
2023/10/04 00:50:51;;;;;;;;;;;12.10;99.90;;;;;;6781268;88;20105;-80
2023/10/04 01:00:54;;;;;;;;;;;12.30;99.90;;;;;;6782537;88;20043;-81
2023/10/04 01:11:08;;;;;;;;;;;12.50;99.90;;;;;;6777992;88;20077;-81
2023/10/04 01:21:09;;;;;;;;;;;12.60;99.90;;;;;;6745320;88;20080;-81
2023/10/04 01:31:20;;;;;;;;;;;12.80;99.90;;;;;;6759277;88;20057;-80
2023/10/04 01:41:23;;;;;;;;;;;12.70;99.90;;;;;;6744533;88;20244;-81
2023/10/04 01:51:27;;;;;;;;;;;12.70;99.90;;;;;;6750005;88;20092;-81
2023/10/04 02:01:37;;;;;;;;;;;12.70;99.90;;;;;;6769582;88;20114;-80
2023/10/04 02:22:39;;;;;;;;;;;12.10;99.90;;;;;;6713685;88;20517;-79
2023/10/04 02:32:41;;;;;;;;;;;11.80;99.90;;;;;;6736050;88;20095;-79
2023/10/04 02:42:44;;;;;;;;;;;11.60;99.90;;;;;;6731075;88;20061;-80
2023/10/04 02:52:45;;;;;;;;;;;11.60;99.90;;;;;;6730319;88;20099;-79
2023/10/04 03:02:47;;;;;;;;;;;11.70;99.90;;;;;;6724452;88;20068;-80
2023/10/04 03:12:51;;;;;;;;;;;11.70;99.90;;;;;;6727895;88;20067;-79
2023/10/04 03:22:55;;;;;;;;;;;11.80;99.90;;;;;;6725976;88;20126;-79
2023/10/04 03:32:56;;;;;;;;;;;11.90;99.90;;;;;;6726599;88;20144;-78
2023/10/04 03:42:57;;;;;;;;;;;11.90;99.90;;;;;;6728266;88;20079;-80
2023/10/04 03:52:57;;;;;;;;;;;11.90;99.90;;;;;;6726815;88;20081;-80
2023/10/04 04:02:58;;;;;;;;;;;11.90;99.90;;;;;;6730288;88;20083;-80
2023/10/04 04:13:00;;;;;;;;;;;11.90;99.90;;;;;;6728005;88;20077;-80
2023/10/04 04:23:00;;;;;;;;;;;11.90;99.90;;;;;;6725479;88;20088;-80
2023/10/04 04:33:04;;;;;;;;;;;11.90;99.90;;;;;;6725981;88;20077;-80
2023/10/04 04:53:27;;;;;;;;;;;12.30;99.90;;;;;;6727435;88;20537;-80
2023/10/04 05:03:28;;;;;;;;;;;12.30;99.90;;;;;;6727215;88;20201;-79
2023/10/04 05:13:28;;;;;;;;;;;12.30;99.90;;;;;;6724263;88;20061;-79
2023/10/04 05:23:31;;;;;;;;;;;12.30;99.90;;;;;;6719628;88;20075;-78
2023/10/04 05:33:33;;;;;;;;;;;12.20;99.90;;;;;;6725833;88;20509;-78
2023/10/04 05:43:34;;;;;;;;;;;12.10;99.90;;;;;;6721611;88;20502;-77
2023/10/04 05:53:34;;;;;;;;;;;12.00;99.90;;;;;;6724011;88;20095;-78
2023/10/04 06:03:35;;;;;;;;;;;12.10;99.90;;;;;;6718331;88;20099;-79
2023/10/04 06:13:35;;;;;;;;;;;12.00;99.90;;;;;;6725325;88;20643;-79
2023/10/04 06:23:36;;;;;;;;;;;12.00;99.90;;;;;;6718177;88;20086;-78
2023/10/04 06:33:37;;;;;;;;;;;12.00;99.90;;;;;;6718781;88;20478;-78
2023/10/04 06:43:37;;;;;;;;;;;12.20;99.90;;;;;;6725664;88;20079;-78
2023/10/04 06:53:43;;;;;;;;;;;12.40;99.90;;;;;;6718189;88;20529;-78
2023/10/04 07:03:44;;;;;;;;;;;12.70;99.90;;;;;;6721615;88;20104;-78
2023/10/04 07:13:44;;;;;;;;;;;13.10;99.90;;;;;;6730785;88;20157;-77
2023/10/04 07:23:45;;;;;;;;;;;13.60;99.90;;;;;;6731470;88;20491;-80
2023/10/04 07:33:46;;;;;;;;;;;14.20;99.90;;;;;;6721722;88;20529;-78
2023/10/04 07:43:47;;;;;;;;;;;15.10;99.90;;;;;;6717708;88;20122;-79
2023/10/04 07:53:50;;;;;;;;;;;15.30;99.90;;;;;;6724668;88;20072;-78
2023/10/04 08:03:52;;;;;;;;;;;15.60;99.90;;;;;;6726470;88;20101;-79
2023/10/04 08:13:53;;;;;;;;;;;16.10;99.90;;;;;;6723010;88;20067;-78
2023/10/04 08:23:54;;;;;;;;;;;16.20;99.90;;;;;;6716613;88;20084;-78
2023/10/04 08:33:55;;;;;;;;;;;16.50;99.90;;;;;;6718443;88;20067;-78
2023/10/04 08:43:55;;;;;;;;;;;16.60;99.90;;;;;;6721460;88;20055;-79
2023/10/04 08:54:11;;;;;;;;;;;17.30;99.90;;;;;;6721034;88;20066;-78
2023/10/04 09:04:13;;;;;;;;;;;17.50;99.90;;;;;;6718080;88;20068;-79
2023/10/04 09:14:15;;;;;;;;;;;17.80;99.90;;;;;;6713639;88;20070;-80
2023/10/04 09:24:16;;;;;;;;;;;18.50;99.90;;;;;;6729836;88;20517;-80
2023/10/04 09:34:16;;;;;;;;;;;18.80;99.90;;;;;;6728646;88;20075;-80
2023/10/04 09:44:23;;;;;;;;;;;19.30;99.90;;;;;;6729292;88;20100;-79
2023/10/04 09:54:23;;;;;;;;;;;19.80;99.90;;;;;;6718591;88;20068;-79
2023/10/04 10:04:28;;;;;;;;;;;20.00;99.90;;;;;;6720401;88;20125;-79
2023/10/04 10:14:30;;;;;;;;;;;20.60;99.90;;;;;;6724433;88;20059;-79
2023/10/04 10:24:31;;;;;;;;;;;21.50;99.90;;;;;;6727671;88;20071;-80
2023/10/04 10:34:31;;;;;;;;;;;21.90;99.90;;;;;;6712848;88;20504;-80
2023/10/04 10:44:34;;;;;;;;;;;21.30;99.90;;;;;;6717488;88;20066;-80
2023/10/04 10:54:36;;;;;;;;;;;20.80;99.90;;;;;;6718722;88;20083;-79
2023/10/04 11:04:36;;;;;;;;;;;20.10;99.90;;;;;;6719522;88;20089;-78
2023/10/04 11:14:37;;;;;;;;;;;20.80;99.90;;;;;;6715969;88;20060;-79
2023/10/04 11:24:39;;;;;;;;;;;21.50;99.90;;;;;;6718459;88;20043;-79
2023/10/04 11:34:42;;;;;;;;;;;21.80;99.90;;;;;;6721588;88;20073;-80
2023/10/04 11:44:43;;;;;;;;;;;20.90;99.90;;;;;;6720527;88;20059;-79
2023/10/04 11:54:46;;;;;;;;;;;20.30;99.90;;;;;;6735191;88;20084;-79
2023/10/04 12:04:47;;;;;;;;;;;20.20;99.90;;;;;;6728583;88;20113;-79
2023/10/04 12:14:48;;;;;;;;;;;20.20;99.90;;;;;;6727183;88;20067;-80
2023/10/04 12:24:50;;;;;;;;;;;20.50;99.90;;;;;;6731020;88;20180;-80
2023/10/04 12:34:50;;;;;;;;;;;20.50;99.90;;;;;;6719973;88;20079;-80
2023/10/04 12:44:50;;;;;;;;;;;20.50;99.90;;;;;;6726487;88;20061;-79
2023/10/04 12:54:51;;;;;;;;;;;20.20;99.90;;;;;;6723660;88;20522;-79
2023/10/04 13:04:54;;;;;;;;;;;20.40;99.90;;;;;;6712404;88;20520;-79
2023/10/04 13:14:55;;;;;;;;;;;19.70;99.90;;;;;;6725464;88;20050;-80
2023/10/04 13:24:56;;;;;;;;;;;20.10;99.90;;;;;;6729894;88;20103;-79
2023/10/04 13:34:56;;;;;;;;;;;19.50;99.90;;;;;;6721917;88;20066;-79
2023/10/04 13:44:57;;;;;;;;;;;19.50;99.90;;;;;;6720118;88;20661;-79
2023/10/04 13:54:57;;;;;;;;;;;20.00;99.90;;;;;;6731111;88;20062;-79
2023/10/04 14:15:07;;;;;;;;;;;19.50;99.90;;;;;;6732140;88;20186;-79
2023/10/04 14:25:09;;;;;;;;;;;19.20;99.90;;;;;;6742377;88;20058;-78
2023/10/04 14:35:10;;;;;;;;;;;19.00;99.90;;;;;;6740311;88;20067;-78
2023/10/04 14:45:11;;;;;;;;;;;19.10;99.90;;;;;;6743815;88;20555;-78
2023/10/04 14:55:16;;;;;;;;;;;18.90;99.90;;;;;;6739152;88;20115;-78
2023/10/04 15:05:17;;;;;;;;;;;18.70;99.90;;;;;;6740940;88;20064;-79
2023/10/04 15:15:18;;;;;;;;;;;18.70;99.90;;;;;;6749929;88;20165;-79
2023/10/04 15:25:18;;;;;;;;;;;18.50;99.90;;;;;;6742779;88;20080;-78
2023/10/04 15:35:24;;;;;;;;;;;18.30;99.90;;;;;;6743768;88;20054;-79
2023/10/04 15:45:25;;;;;;;;;;;18.30;99.90;;;;;;6740483;88;20550;-79
2023/10/04 15:55:26;;;;;;;;;;;18.00;99.90;;;;;;6741461;88;20067;-79
2023/10/04 16:05:27;;;;;;;;;;;17.80;99.90;;;;;;6740315;88;20069;-80
2023/10/04 16:15:27;;;;;;;;;;;17.80;99.90;;;;;;6748336;88;20120;-80
2023/10/04 16:25:28;;;;;;;;;;;17.80;99.90;;;;;;6751523;88;20078;-78
2023/10/04 16:35:28;;;;;;;;;;;17.60;99.90;;;;;;6742815;88;20120;-78
2023/10/04 16:45:29;;;;;;;;;;;17.40;99.90;;;;;;6741825;88;20059;-79
2023/10/04 16:55:30;;;;;;;;;;;16.90;99.90;;;;;;6761831;88;20027;-81
2023/10/04 17:05:30;;;;;;;;;;;16.70;99.90;;;;;;6747437;88;20066;-79
2023/10/04 17:15:31;;;;;;;;;;;16.20;99.90;;;;;;6743762;88;20556;-79
2023/10/04 17:25:31;;;;;;;;;;;16.00;99.90;;;;;;6737751;88;20514;-78
2023/10/04 17:35:32;;;;;;;;;;;15.70;99.90;;;;;;6742610;88;20110;-78
2023/10/04 17:45:36;;;;;;;;;;;15.50;99.90;;;;;;6744063;88;20093;-79
2023/10/04 17:55:37;;;;;;;;;;;15.50;99.90;;;;;;6754809;88;20062;-78
2023/10/04 18:05:40;;;;;;;;;;;15.40;99.90;;;;;;6744232;88;20201;-79
2023/10/04 18:15:41;;;;;;;;;;;15.40;99.90;;;;;;6750535;88;20193;-78
2023/10/04 18:25:41;;;;;;;;;;;15.40;99.90;;;;;;6744782;88;20144;-79
2023/10/04 18:35:42;;;;;;;;;;;15.20;99.90;;;;;;6744429;88;20102;-78
2023/10/04 18:45:42;;;;;;;;;;;15.30;99.90;;;;;;6749233;88;21431;-80
2023/10/04 18:55:43;;;;;;;;;;;15.20;99.90;;;;;;6744240;88;20037;-79
2023/10/04 19:05:45;;;;;;;;;;;15.10;99.90;;;;;;6744505;88;20074;-80
2023/10/04 19:15:46;;;;;;;;;;;14.80;99.90;;;;;;6743818;88;20557;-80
2023/10/04 19:25:49;;;;;;;;;;;14.70;99.90;;;;;;6744475;88;20073;-80
2023/10/04 19:35:49;;;;;;;;;;;14.60;99.90;;;;;;6744715;88;20567;-80
2023/10/04 19:45:50;;;;;;;;;;;14.50;99.90;;;;;;6743816;88;20050;-81
2023/10/04 19:55:53;;;;;;;;;;;14.50;99.90;;;;;;6744835;88;20596;-79
2023/10/04 20:15:59;;;;;;;;;;;14.40;99.90;;;;;;6766545;88;20089;-81
2023/10/04 20:26:05;;;;;;;;;;;14.30;99.90;;;;;;6764062;88;20105;-81
2023/10/04 20:36:06;;;;;;;;;;;14.40;99.90;;;;;;6764527;88;20426;-81
2023/10/04 20:46:07;;;;;;;;;;;14.20;99.90;;;;;;6759591;88;20102;-81
2023/10/04 20:56:07;;;;;;;;;;;14.00;99.90;;;;;;6760780;88;20100;-81
2023/10/04 21:06:09;;;;;;;;;;;14.10;99.90;;;;;;6765104;87;20470;-80
2023/10/04 21:16:10;;;;;;;;;;;14.00;99.90;;;;;;6766007;88;20052;-81
2023/10/04 21:26:11;;;;;;;;;;;14.00;99.90;;;;;;6767273;88;20535;-81
2023/10/04 21:36:13;;;;;;;;;;;13.90;99.90;;;;;;6767766;88;20060;-80
2023/10/04 21:46:22;;;;;;;;;;;13.90;99.90;;;;;;6767052;88;20551;-81
2023/10/04 21:56:22;;;;;;;;;;;13.80;99.90;;;;;;6749784;88;20563;-81
2023/10/04 22:06:22;;;;;;;;;;;13.70;99.90;;;;;;6750414;88;20240;-81
2023/10/04 22:16:23;;;;;;;;;;;13.60;99.90;;;;;;6749967;88;20062;-81
2023/10/04 22:26:25;;;;;;;;;;;13.60;99.90;;;;;;6746774;88;20680;-81
2023/10/04 22:36:26;;;;;;;;;;;13.70;99.90;;;;;;6751156;88;20061;-80
2023/10/04 22:46:26;;;;;;;;;;;13.90;99.90;;;;;;6748737;88;20076;-80
2023/10/04 22:56:29;;;;;;;;;;;14.00;99.90;;;;;;6749220;88;20081;-80
2023/10/04 23:06:31;;;;;;;;;;;14.00;99.90;;;;;;6748729;88;20126;-80
2023/10/04 23:16:32;;;;;;;;;;;14.00;99.90;;;;;;6751146;88;20080;-80
2023/10/04 23:26:33;;;;;;;;;;;14.00;99.90;;;;;;6748574;88;20067;-81
2023/10/04 23:36:34;;;;;;;;;;;14.00;99.90;;;;;;6750274;88;20074;-79
2023/10/04 23:46:36;;;;;;;;;;;14.00;99.90;;;;;;6766746;88;20069;-79
